Time;durP1;ratioP1;P1;durP2;ratioP2;P2;SDS_P1;SDS_P2;PMS_P1;PMS_P2;Temp;Humidity;BMP_temperature;BMP_pressure;BME280_temperature;BME280_humidity;BME280_pressure;Samples;Min_cycle;Max_cycle;Signal;HPM_P1;HPM_P2
2022/07/14 00:02:32;;;;;;;5.20;2.70;;;;;;;19.44;60.29;99964.48;130402;1267;109741;-71
2022/07/14 00:05:37;;;;;;;3.00;2.70;;;;;;;19.37;60.59;99964.20;130374;1267;108745;-71
2022/07/14 00:08:44;;;;;;;3.80;2.80;;;;;;;19.27;60.74;99962.38;130363;1267;108889;-70
2022/07/14 00:11:49;;;;;;;3.00;2.60;;;;;;;19.16;60.87;99969.42;130208;1268;108743;-72
2022/07/14 00:14:54;;;;;;;4.10;2.50;;;;;;;19.04;61.12;99969.83;130332;1268;108701;-70
2022/07/14 00:18:00;;;;;;;2.70;2.50;;;;;;;18.95;61.39;99963.92;130260;1267;108603;-71
2022/07/14 00:21:06;;;;;;;3.00;2.50;;;;;;;18.90;61.50;99961.61;130510;1268;108894;-77
2022/07/14 00:24:12;;;;;;;3.20;2.80;;;;;;;18.83;61.80;99957.66;130373;1267;108762;-77
2022/07/14 00:27:18;;;;;;;4.10;2.60;;;;;;;18.76;61.90;99956.23;130416;1268;107332;-78
2022/07/14 00:30:23;;;;;;;3.30;2.70;;;;;;;18.70;62.03;99962.04;130489;1268;108730;-78
2022/07/14 00:33:29;;;;;;;3.30;2.70;;;;;;;18.60;62.06;99967.81;130343;1268;108696;-76
2022/07/14 00:36:35;;;;;;;3.10;2.60;;;;;;;18.52;62.20;99963.92;130395;1268;107504;-71
2022/07/14 00:39:56;;;;;;;3.20;2.70;;;;;;;18.45;62.25;99961.08;130331;1267;107699;-71
2022/07/14 00:43:02;;;;;;;3.20;2.80;;;;;;;18.36;62.45;99960.59;130317;1267;108760;-71
2022/07/14 00:46:07;;;;;;;3.10;2.80;;;;;;;18.30;62.58;99957.73;130364;1267;107558;-72
2022/07/14 00:49:13;;;;;;;3.20;2.60;;;;;;;18.24;62.71;99954.59;130249;1267;108870;-72
2022/07/14 00:52:18;;;;;;;3.60;2.80;;;;;;;18.19;62.72;99961.20;130365;1268;108850;-73
2022/07/14 00:55:23;;;;;;;2.40;2.20;;;;;;;18.14;62.88;99960.35;130372;1268;109144;-72
2022/07/14 00:58:28;;;;;;;2.70;2.40;;;;;;;18.09;63.16;99959.11;130360;1268;108601;-71
2022/07/14 01:01:34;;;;;;;3.40;2.50;;;;;;;18.03;63.42;99957.88;130335;1267;108699;-71
2022/07/14 01:04:39;;;;;;;4.40;2.70;;;;;;;18.00;63.51;99952.77;130512;1268;108632;-72
2022/07/14 01:07:46;;;;;;;2.50;2.30;;;;;;;18.01;63.49;99948.65;130435;1268;108578;-73
2022/07/14 01:10:52;;;;;;;3.10;2.80;;;;;;;17.98;63.62;99946.23;130427;1268;108837;-74
2022/07/14 01:14:02;;;;;;;3.30;2.80;;;;;;;17.95;63.63;99944.13;130381;1268;108892;-75
2022/07/14 01:17:09;;;;;;;3.00;2.70;;;;;;;17.93;63.80;99950.27;130399;1268;108548;-73
2022/07/14 01:20:15;;;;;;;3.70;2.70;;;;;;;17.86;63.84;99950.45;130303;1267;107863;-74
2022/07/14 01:23:21;;;;;;;3.30;2.70;;;;;;;17.80;63.90;99952.66;130489;1268;108696;-73
2022/07/14 01:26:26;;;;;;;3.50;2.80;;;;;;;17.74;64.04;99950.79;130341;1268;110006;-73
2022/07/14 01:29:32;;;;;;;3.50;2.60;;;;;;;17.67;64.23;99953.52;130397;1268;108881;-76
2022/07/14 01:32:37;;;;;;;3.70;2.50;;;;;;;17.59;64.32;99946.34;130404;1267;108878;-76
2022/07/14 01:35:43;;;;;;;3.80;2.20;;;;;;;17.55;64.50;99948.08;130387;1268;108851;-75
2022/07/14 01:38:48;;;;;;;2.50;2.30;;;;;;;17.54;64.64;99936.09;130360;1268;109158;-76
2022/07/14 01:41:54;;;;;;;2.90;2.30;;;;;;;17.55;64.70;99937.14;130369;1267;108795;-75
2022/07/14 01:45:00;;;;;;;3.30;2.70;;;;;;;17.54;64.65;99935.80;130415;1268;108749;-72
2022/07/14 01:48:07;;;;;;;3.30;2.40;;;;;;;17.50;64.66;99930.77;130423;1268;108704;-72
2022/07/14 01:51:13;;;;;;;3.70;2.50;;;;;;;17.44;64.70;99931.88;130393;1268;108914;-72
2022/07/14 01:54:18;;;;;;;7.00;2.70;;;;;;;17.36;64.93;99930.63;130351;1268;108875;-74
2022/07/14 01:57:23;;;;;;;3.70;2.80;;;;;;;17.30;65.04;99932.37;130338;1268;108744;-74
2022/07/14 02:00:29;;;;;;;3.20;2.80;;;;;;;17.25;65.15;99943.85;130407;1268;108769;-73
2022/07/14 02:03:38;;;;;;;3.50;2.70;;;;;;;17.19;65.28;99944.83;130368;1268;109062;-73
2022/07/14 02:06:46;;;;;;;2.80;2.40;;;;;;;17.14;65.39;99944.23;130379;1268;108897;-72
2022/07/14 02:13:27;;;;;;;2.60;2.20;;;;;;;17.09;65.58;99942.94;130368;1268;109445;-74
2022/07/14 02:16:33;;;;;;;4.20;2.50;;;;;;;17.10;65.60;99941.91;130393;1268;108879;-70
2022/07/14 02:19:38;;;;;;;2.90;2.60;;;;;;;17.08;65.51;99945.59;130208;1267;109715;-70
2022/07/14 02:22:44;;;;;;;3.20;2.70;;;;;;;17.04;65.67;99949.81;130316;1267;107280;-73
2022/07/14 02:25:50;;;;;;;3.40;2.60;;;;;;;17.01;65.64;99955.03;130473;1268;108896;-72
2022/07/14 02:28:55;;;;;;;4.10;2.90;;;;;;;16.97;65.74;99963.05;130470;1267;109012;-73
2022/07/14 02:32:01;;;;;;;3.10;2.80;;;;;;;16.90;65.89;99963.75;130356;1268;107415;-74
2022/07/14 02:35:07;;;;;;;3.50;2.80;;;;;;;16.88;65.82;99962.58;130452;1266;108752;-73
2022/07/14 02:38:14;;;;;;;5.10;2.50;;;;;;;16.89;65.84;99966.55;130381;1268;108677;-72
2022/07/14 02:41:20;;;;;;;3.40;2.70;;;;;;;16.88;65.95;99968.41;130342;1267;108150;-72
2022/07/14 02:44:26;;;;;;;4.20;2.90;;;;;;;16.87;65.89;99971.31;130522;1267;108879;-73
2022/07/14 02:47:31;;;;;;;2.60;2.40;;;;;;;16.87;65.98;99976.62;130436;1267;108818;-74
2022/07/14 02:50:37;;;;;;;4.30;2.40;;;;;;;16.92;65.96;99972.53;130374;1267;109085;-74
2022/07/14 02:53:43;;;;;;;3.00;2.60;;;;;;;16.98;66.06;99968.58;130389;1267;108687;-79
2022/07/14 02:56:49;;;;;;;3.00;2.70;;;;;;;17.05;66.20;99969.14;130415;1267;108801;-76
2022/07/14 02:59:54;;;;;;;3.50;2.60;;;;;;;17.06;66.18;99974.69;130378;1268;108871;-71
2022/07/14 03:03:01;;;;;;;3.10;2.80;;;;;;;17.08;66.03;99975.54;130521;1267;108649;-75
2022/07/14 03:06:12;;;;;;;5.20;3.00;;;;;;;17.14;66.15;99982.56;130560;1267;108900;-74
2022/07/14 03:09:18;;;;;;;3.90;2.70;;;;;;;17.25;66.07;99982.80;130375;1267;108913;-76
2022/07/14 03:12:23;;;;;;;2.70;2.40;;;;;;;17.37;66.12;99981.66;130379;1267;109030;-76
2022/07/14 03:15:29;;;;;;;3.70;2.70;;;;;;;17.46;65.86;99980.45;130295;1267;108893;-75
2022/07/14 03:18:34;;;;;;;3.40;2.90;;;;;;;17.54;65.75;99980.84;130296;1267;108649;-76
2022/07/14 03:21:40;;;;;;;3.10;2.80;;;;;;;17.65;65.88;99976.44;130407;1267;108385;-77
2022/07/14 03:24:46;;;;;;;4.60;2.80;;;;;;;17.78;65.81;99971.13;130327;1267;108922;-77
2022/07/14 03:27:53;;;;;;;3.40;2.60;;;;;;;17.88;65.63;99969.22;130378;1268;108919;-74
2022/07/14 03:31:02;;;;;;;4.00;3.00;;;;;;;17.97;65.49;99972.70;130381;1267;109157;-75
2022/07/14 03:34:08;;;;;;;5.40;3.10;;;;;;;18.06;65.31;99976.56;130375;1267;108681;-75
2022/07/14 03:37:15;;;;;;;3.60;3.30;;;;;;;18.15;65.29;99980.87;130364;1267;108739;-76
2022/07/14 03:40:27;;;;;;;5.00;3.40;;;;;;;18.30;65.17;99974.32;130370;1267;108759;-75
2022/07/14 03:43:34;;;;;;;4.20;3.50;;;;;;;18.50;65.01;99976.65;130386;1267;108844;-75
2022/07/14 03:46:40;;;;;;;4.50;3.50;;;;;;;18.71;65.02;99974.42;130495;1267;108877;-75
2022/07/14 03:49:52;;;;;;;4.70;3.70;;;;;;;19.02;64.74;99971.30;130499;1267;108986;-74
2022/07/14 03:52:58;;;;;;;4.30;3.40;;;;;;;19.30;64.63;99971.10;130451;1266;108751;-74
2022/07/14 03:56:04;;;;;;;3.90;3.50;;;;;;;19.46;64.51;99963.42;130363;1267;108737;-75
2022/07/14 03:59:17;;;;;;;3.90;3.50;;;;;;;19.53;64.28;99971.79;130359;1266;107846;-75
2022/07/14 04:02:23;;;;;;;4.30;3.70;;;;;;;19.55;64.22;99971.20;130482;1267;108982;-75
2022/07/14 04:05:29;;;;;;;3.90;3.50;;;;;;;19.56;64.10;99971.92;130380;1267;108963;-75
2022/07/14 04:08:40;;;;;;;4.30;3.40;;;;;;;19.59;64.27;99970.70;130365;1266;108717;-75
2022/07/14 04:11:48;;;;;;;4.80;3.40;;;;;;;19.72;64.21;99972.80;130389;1267;108949;-75
2022/07/14 04:14:57;;;;;;;3.90;3.50;;;;;;;19.82;64.26;99978.22;130385;1267;108824;-75
2022/07/14 04:18:03;;;;;;;4.10;3.60;;;;;;;19.97;64.22;99982.30;130377;1267;109132;-75
2022/07/14 04:21:11;;;;;;;4.10;3.70;;;;;;;20.12;63.87;99979.34;130356;1267;108834;-75
2022/07/14 04:24:17;;;;;;;6.10;4.10;;;;;;;20.22;63.42;99980.00;130449;1267;108886;-76
2022/07/14 04:27:23;;;;;;;5.40;4.40;;;;;;;20.27;63.45;99987.52;130414;1267;108754;-75
2022/07/14 04:30:29;;;;;;;4.90;4.10;;;;;;;20.36;63.75;99984.39;130284;1267;108774;-76
2022/07/14 04:33:34;;;;;;;5.70;4.50;;;;;;;20.44;63.73;99980.39;130339;1267;108869;-76
2022/07/14 04:36:41;;;;;;;5.00;4.10;;;;;;;20.47;63.80;99982.87;130444;1267;108765;-76
2022/07/14 04:39:49;;;;;;;4.50;3.90;;;;;;;20.55;63.69;99986.48;130370;1267;107660;-77
2022/07/14 04:42:54;;;;;;;3.70;3.40;;;;;;;20.71;63.52;99987.35;130378;1267;108750;-76
2022/07/14 04:46:01;;;;;;;4.20;3.80;;;;;;;20.90;63.57;99985.74;130455;1267;108690;-76
2022/07/14 04:52:31;;;;;;;4.60;3.60;;;;;;;21.04;63.08;99989.70;130277;1267;108820;-76
2022/07/14 04:55:45;;;;;;;5.40;3.70;;;;;;;20.96;63.15;99989.01;130360;1267;108767;-76
2022/07/14 04:59:11;;;;;;;5.70;3.50;;;;;;;21.02;62.62;99994.81;130426;1267;109788;-76
2022/07/14 05:02:17;;;;;;;5.70;3.40;;;;;;;21.11;62.78;99992.34;130432;1267;108855;-76
2022/07/14 05:05:22;;;;;;;4.30;3.90;;;;;;;21.25;62.43;99991.25;130337;1267;108673;-75
2022/07/14 05:08:29;;;;;;;16.00;5.00;;;;;;;21.33;62.40;99985.34;130419;1266;108639;-75
2022/07/14 05:11:34;;;;;;;5.70;3.50;;;;;;;21.45;62.11;99984.73;130358;1267;108738;-75
2022/07/14 05:14:41;;;;;;;6.80;4.00;;;;;;;21.49;61.85;99983.14;130368;1267;108898;-78
2022/07/14 05:17:46;;;;;;;4.10;3.60;;;;;;;21.53;61.44;99984.86;130393;1267;108987;-78
2022/07/14 05:20:53;;;;;;;4.70;3.40;;;;;;;21.62;61.89;99980.52;130382;1267;108747;-78
2022/07/14 05:23:58;;;;;;;3.80;3.10;;;;;;;21.77;61.85;99978.07;130338;1267;108811;-79
2022/07/14 05:27:04;;;;;;;3.60;3.10;;;;;;;21.87;61.62;99980.07;130296;1267;107675;-78
2022/07/14 05:30:14;;;;;;;3.90;2.90;;;;;;;21.96;61.44;99983.52;130373;1267;107606;-77
2022/07/14 05:33:20;;;;;;;4.20;3.00;;;;;;;22.08;61.35;99979.36;130411;1267;108802;-82
2022/07/14 05:36:27;;;;;;;3.30;2.90;;;;;;;22.18;61.44;99979.21;130499;1267;107657;-81
2022/07/14 05:39:32;;;;;;;3.40;2.70;;;;;;;22.24;60.94;99979.29;130433;1267;108616;-81
2022/07/14 05:42:38;;;;;;;4.30;2.80;;;;;;;22.28;61.16;99987.84;130470;1267;108808;-81
2022/07/14 05:45:51;;;;;;;3.50;2.50;;;;;;;22.32;60.11;99993.66;130411;1267;108709;-82
2022/07/14 05:48:59;;;;;;;3.40;2.40;;;;;;;22.31;59.97;99994.61;130355;1267;108626;-82
2022/07/14 05:52:05;;;;;;;2.90;2.60;;;;;;;22.35;59.82;99998.92;130548;1267;108762;-82
2022/07/14 05:55:11;;;;;;;2.40;2.20;;;;;;;22.37;59.13;100002.13;130270;1267;108919;-82
2022/07/14 05:58:17;;;;;;;5.60;2.40;;;;;;;22.43;59.70;100002.81;130705;1266;108714;-82
2022/07/14 06:01:22;;;;;;;2.40;2.20;;;;;;;22.44;59.28;100011.44;130324;1267;109670;-82
2022/07/14 06:04:29;;;;;;;3.70;2.20;;;;;;;22.41;58.82;100012.92;130421;1267;108714;-82
2022/07/14 06:07:36;;;;;;;3.50;2.30;;;;;;;22.28;57.91;100010.46;130390;1267;108850;-82
2022/07/14 06:10:42;;;;;;;2.80;2.50;;;;;;;22.21;59.33;100005.38;130314;1267;108927;-83
2022/07/14 06:13:48;;;;;;;3.90;2.70;;;;;;;22.26;59.21;100006.89;130400;1267;108676;-82
2022/07/14 06:16:54;;;;;;;4.50;2.70;;;;;;;22.29;59.51;100008.57;130370;1267;109069;-82
2022/07/14 06:20:05;;;;;;;3.70;2.90;;;;;;;22.20;59.21;100008.23;130429;1267;108837;-83
2022/07/14 06:23:11;;;;;;;3.50;2.90;;;;;;;22.17;59.79;100013.10;131952;1267;108737;-83
2022/07/14 06:26:17;;;;;;;5.00;2.90;;;;;;;22.24;59.62;100019.94;130387;1267;108691;-82
2022/07/14 06:29:23;;;;;;;3.20;2.80;;;;;;;22.20;59.37;100022.53;130355;1267;108626;-82
2022/07/14 06:32:29;;;;;;;4.00;2.70;;;;;;;22.16;59.16;100026.04;130377;1266;108754;-82
2022/07/14 06:35:37;;;;;;;4.70;2.70;;;;;;;22.24;59.70;100025.52;130381;1267;108802;-83
2022/07/14 06:38:43;;;;;;;4.40;2.60;;;;;;;22.35;59.13;100025.57;130261;1267;110015;-83
2022/07/14 06:41:48;;;;;;;3.30;2.50;;;;;;;22.38;59.04;100022.59;130322;1267;107159;-83
2022/07/14 06:44:59;;;;;;;2.70;2.20;;;;;;;22.47;58.68;100026.77;130325;1267;108854;-83
2022/07/14 06:48:07;;;;;;;3.10;2.30;;;;;;;22.60;58.72;100029.30;130350;1266;108861;-83
2022/07/14 06:51:13;;;;;;;3.20;2.30;;;;;;;22.66;57.60;100027.39;130333;1267;108915;-83
2022/07/14 06:54:18;;;;;;;2.40;2.10;;;;;;;22.67;57.89;100025.60;130375;1267;108737;-83
2022/07/14 06:57:23;;;;;;;2.20;2.00;;;;;;;22.79;57.90;100022.19;130323;1267;108706;-83
2022/07/14 07:00:29;;;;;;;2.70;2.00;;;;;;;22.81;57.02;100017.77;130329;1266;108733;-83
2022/07/14 07:03:34;;;;;;;2.80;1.70;;;;;;;22.81;56.28;100013.38;130344;1267;107821;-83
2022/07/14 07:06:44;;;;;;;2.00;1.80;;;;;;;22.69;55.64;100017.80;130374;1267;108736;-83
2022/07/14 07:09:50;;;;;;;2.30;1.60;;;;;;;22.65;55.87;100019.17;130339;1267;108779;-83
2022/07/14 07:12:55;;;;;;;2.50;2.20;;;;;;;22.80;56.48;100019.34;130354;1267;107647;-83
2022/07/14 07:16:05;;;;;;;3.40;2.00;;;;;;;22.82;55.63;100022.48;130324;1266;108825;-83
2022/07/14 07:19:11;;;;;;;2.10;1.80;;;;;;;22.90;56.48;100018.29;130410;1267;108756;-83
2022/07/14 07:22:16;;;;;;;2.00;1.80;;;;;;;23.12;56.56;100018.12;130331;1267;108654;-82
2022/07/14 07:25:22;;;;;;;3.80;1.90;;;;;;;23.36;56.43;100021.68;130390;1267;108735;-83
2022/07/14 07:28:28;;;;;;;1.80;1.50;;;;;;;23.55;55.73;100020.19;130330;1267;108745;-82
2022/07/14 07:31:33;;;;;;;3.10;1.30;;;;;;;23.56;53.55;100018.08;130427;1267;109000;-82
2022/07/14 07:34:39;;;;;;;3.50;1.40;;;;;;;23.48;53.38;100026.86;130368;1267;108725;-82
2022/07/14 07:37:45;;;;;;;1.50;1.40;;;;;;;23.35;52.76;100022.21;130282;1267;108863;-83
2022/07/14 07:40:53;;;;;;;3.80;1.80;;;;;;;23.23;52.24;100032.38;130337;1267;108189;-83
2022/07/14 07:43:58;;;;;;;3.40;1.60;;;;;;;23.14;53.15;100029.52;130366;1267;109161;-82
2022/07/14 07:47:04;;;;;;;3.20;1.70;;;;;;;23.12;53.38;100023.23;130324;1267;108959;-83
2022/07/14 07:50:10;;;;;;;4.60;2.00;;;;;;;23.21;53.55;100022.71;130379;1267;108853;-83
2022/07/14 07:53:16;;;;;;;2.00;1.40;;;;;;;23.31;53.58;100022.04;130362;1267;108804;-82
2022/07/14 07:56:21;;;;;;;1.70;1.60;;;;;;;23.43;54.51;100016.31;130356;1267;109120;-82
2022/07/14 07:59:26;;;;;;;2.80;1.60;;;;;;;23.61;53.92;100019.31;130342;1267;108939;-82
2022/07/14 08:02:32;;;;;;;2.00;1.60;;;;;;;23.51;52.47;100020.66;130358;1266;108662;-82
2022/07/14 08:05:37;;;;;;;2.70;1.40;;;;;;;23.37;53.15;100023.55;130365;1267;108937;-82
2022/07/14 08:08:43;;;;;;;3.20;1.60;;;;;;;23.26;52.57;100026.73;130422;1266;108097;-82
2022/07/14 08:11:48;;;;;;;2.60;1.40;;;;;;;23.18;52.35;100027.10;130408;1266;108849;-82
2022/07/14 08:14:53;;;;;;;2.70;1.40;;;;;;;23.21;53.21;100022.38;130402;1267;108823;-83
2022/07/14 08:17:59;;;;;;;3.20;1.70;;;;;;;23.29;53.54;100024.16;130341;1267;107515;-83
2022/07/14 08:21:04;;;;;;;3.20;1.80;;;;;;;23.27;52.89;100025.42;130329;1267;108223;-83
2022/07/14 08:24:10;;;;;;;2.20;1.60;;;;;;;23.26;53.25;100029.66;130316;1266;108762;-83
2022/07/14 08:27:15;;;;;;;3.80;1.50;;;;;;;23.22;52.74;100027.89;130353;1267;109102;-82
2022/07/14 08:30:20;;;;;;;1.60;1.30;;;;;;;23.29;53.22;100028.86;130296;1267;108954;-82
2022/07/14 08:33:26;;;;;;;6.60;1.70;;;;;;;23.44;52.40;100031.14;130328;1266;108786;-83
2022/07/14 08:36:31;;;;;;;3.70;2.00;;;;;;;23.39;51.67;100030.45;130364;1267;108711;-83
2022/07/14 08:39:37;;;;;;;4.70;2.10;;;;;;;23.38;52.20;100028.41;130366;1266;108781;-83
2022/07/14 08:42:45;;;;;;;3.60;1.90;;;;;;;23.35;52.69;100029.55;130396;1266;108932;-83
2022/07/14 08:45:52;;;;;;;2.00;1.80;;;;;;;23.51;52.57;100032.73;130439;1267;108848;-83
2022/07/14 08:48:58;;;;;;;2.60;1.70;;;;;;;23.60;52.41;100024.25;130378;1267;108088;-83
2022/07/14 08:52:03;;;;;;;2.10;1.50;;;;;;;23.62;52.02;100026.13;130399;1267;108925;-82
2022/07/14 08:55:10;;;;;;;3.40;1.60;;;;;;;23.64;52.57;100028.73;130316;1267;108848;-83
2022/07/14 08:58:16;;;;;;;3.70;1.70;;;;;;;23.62;51.53;100032.78;130590;1267;107462;-83
2022/07/14 09:01:22;;;;;;;2.70;1.70;;;;;;;23.50;51.86;100026.59;130608;1267;108717;-82
2022/07/14 09:04:27;;;;;;;4.80;1.80;;;;;;;23.56;52.13;100028.33;130409;1267;108697;-78
2022/07/14 09:07:34;;;;;;;2.70;1.70;;;;;;;23.53;51.72;100028.92;130265;1268;107841;-79
2022/07/14 09:10:41;;;;;;;3.20;1.40;;;;;;;23.54;52.74;100020.81;129966;1268;412717;-79
2022/07/14 09:13:47;;;;;;;3.60;2.00;;;;;;;23.68;52.75;100023.45;130276;1268;108938;-79
2022/07/14 09:16:53;;;;;;;3.50;1.60;;;;;;;23.72;52.57;100023.11;130216;1268;106984;-79
2022/07/14 09:20:08;;;;;;;1.50;1.40;;;;;;;23.73;51.59;100026.89;130216;1268;108720;-79
2022/07/14 09:23:14;;;;;;;2.70;1.70;;;;;;;23.75;52.14;100016.77;130244;1268;108728;-78
2022/07/14 09:26:21;;;;;;;2.40;1.60;;;;;;;23.76;52.27;100000.23;130207;1268;109311;-78
2022/07/14 09:29:29;;;;;;;4.20;1.80;;;;;;;23.78;51.83;100005.40;130217;1268;108718;-78
2022/07/14 09:32:53;;;;;;;4.70;2.00;;;;;;;23.66;51.00;99998.74;130280;1268;108827;-78
2022/07/14 09:35:58;;;;;;;3.30;2.30;;;;;;;23.55;51.70;100011.73;130263;1268;108829;-78
2022/07/14 09:39:06;;;;;;;3.20;2.10;;;;;;;23.51;51.38;100008.14;130231;1268;108690;-78
2022/07/14 09:42:11;;;;;;;3.00;1.90;;;;;;;23.52;51.81;100003.14;130253;1268;108877;-78
2022/07/14 09:45:19;;;;;;;4.00;1.80;;;;;;;23.62;51.89;100006.05;130207;1268;108709;-78
2022/07/14 09:48:24;;;;;;;4.10;1.70;;;;;;;23.64;51.33;100002.98;130264;1268;107568;-78
2022/07/14 09:51:30;;;;;;;3.20;1.90;;;;;;;23.53;50.85;100004.56;130238;1268;108987;-78
2022/07/14 09:54:47;;;;;;;3.40;1.70;;;;;;;23.55;51.46;99996.27;130212;1268;106999;-78
2022/07/14 09:57:53;;;;;;;2.10;1.70;;;;;;;23.66;51.51;100000.27;130281;1268;108726;-78
2022/07/14 10:01:03;;;;;;;3.20;1.70;;;;;;;23.56;50.96;100004.08;130202;1268;108249;-79
2022/07/14 10:04:08;;;;;;;2.80;1.70;;;;;;;23.57;51.55;100002.13;130247;1268;109072;-78
2022/07/14 10:07:15;;;;;;;4.40;1.70;;;;;;;23.49;50.24;100003.80;130260;1268;108793;-78
2022/07/14 10:10:21;;;;;;;3.00;1.60;;;;;;;23.29;50.64;99994.39;130203;1268;107785;-79
2022/07/14 10:13:26;;;;;;;1.60;1.40;;;;;;;23.25;51.31;100005.78;130243;1268;108781;-78
2022/07/14 10:16:37;;;;;;;3.20;1.80;;;;;;;23.35;50.36;100005.98;130182;1267;108871;-78
2022/07/14 10:19:44;;;;;;;4.40;1.70;;;;;;;23.38;50.02;100005.66;130260;1268;109247;-78
2022/07/14 10:22:50;;;;;;;3.40;1.60;;;;;;;23.40;49.89;99999.55;130266;1268;108059;-78
2022/07/14 10:25:57;;;;;;;2.50;1.50;;;;;;;23.40;50.44;100005.54;130282;1268;108854;-78
2022/07/14 10:29:06;;;;;;;2.30;1.50;;;;;;;23.55;50.75;100002.82;130323;1268;107568;-79
2022/07/14 10:32:24;;;;;;;2.20;1.40;;;;;;;23.61;50.78;100002.59;130339;1268;108724;-79
2022/07/14 10:35:42;;;;;;;2.50;1.50;;;;;;;23.57;50.41;100007.92;130298;1268;108923;-78
2022/07/14 10:39:03;;;;;;;2.60;1.50;;;;;;;23.49;50.38;100001.06;130211;1268;108558;-79
2022/07/14 10:42:19;;;;;;;1.90;1.40;;;;;;;23.61;50.69;100000.13;130229;1268;108666;-79
2022/07/14 10:45:25;;;;;;;3.40;1.40;;;;;;;23.74;49.73;100006.64;130231;1267;108906;-79
2022/07/14 10:48:32;;;;;;;2.30;1.30;;;;;;;23.80;49.36;99997.50;130266;1268;108502;-79
2022/07/14 10:51:46;;;;;;;4.90;1.40;;;;;;;23.82;48.95;99995.95;130227;1268;109192;-78
2022/07/14 10:55:11;;;;;;;1.80;1.20;;;;;;;23.78;48.01;99989.13;130228;1268;107684;-78
2022/07/14 10:58:36;;;;;;;3.10;1.30;;;;;;;23.81;48.18;99993.05;130283;1268;108942;-79
2022/07/14 11:02:21;;;;;;;4.20;1.40;;;;;;;23.88;49.00;99986.79;130194;1267;108822;-78
2022/07/14 11:05:27;;;;;;;3.80;1.30;;;;;;;23.99;48.91;99992.20;130342;1268;108971;-78
2022/07/14 11:08:33;;;;;;;1.80;1.20;;;;;;;24.00;47.88;99993.17;130332;1268;108851;-78
2022/07/14 11:11:59;;;;;;;2.40;1.10;;;;;;;23.97;48.15;99989.69;130216;1268;107166;-78
2022/07/14 11:15:24;;;;;;;2.50;1.10;;;;;;;23.97;47.68;99991.18;130204;1268;108617;-78
2022/07/14 11:18:34;;;;;;;1.80;1.30;;;;;;;24.05;48.13;99994.96;130248;1268;108950;-80
2022/07/14 11:22:14;;;;;;;3.80;1.40;;;;;;;24.06;46.43;99996.16;130298;1268;107493;-80
2022/07/14 11:25:29;;;;;;;2.00;1.10;;;;;;;23.90;44.86;100000.13;130375;1268;108265;-80
2022/07/14 11:28:43;;;;;;;3.00;1.20;;;;;;;23.80;46.13;99998.52;130313;1268;108912;-80
2022/07/14 11:31:50;;;;;;;1.80;1.10;;;;;;;23.87;45.89;100002.63;130283;1268;108786;-80
2022/07/14 11:38:26;;;;;;;2.40;1.30;;;;;;;24.02;44.96;99990.44;130323;1268;107590;-80
2022/07/14 11:41:45;;;;;;;2.10;1.20;;;;;;;24.08;47.02;99993.75;130267;1268;109156;-78
2022/07/14 11:44:55;;;;;;;2.10;1.00;;;;;;;24.19;46.90;99989.38;130338;1268;108793;-80
2022/07/14 11:48:01;;;;;;;2.00;1.20;;;;;;;24.23;45.90;99990.48;130253;1268;108704;-80
2022/07/14 11:51:09;;;;;;;2.70;1.10;;;;;;;24.22;44.70;99988.09;130258;1268;108780;-80
2022/07/14 11:54:17;;;;;;;2.10;1.20;;;;;;;24.20;45.15;99985.10;130332;1268;108733;-80
2022/07/14 11:57:23;;;;;;;2.70;1.20;;;;;;;24.23;44.51;99986.50;130322;1268;107238;-80
2022/07/14 12:00:28;;;;;;;2.90;1.30;;;;;;;24.27;45.37;99982.48;130211;1268;108868;-79
2022/07/14 12:03:34;;;;;;;1.50;1.20;;;;;;;24.40;44.95;99981.08;130231;1268;108681;-81
2022/07/14 12:06:43;;;;;;;2.30;1.10;;;;;;;24.48;46.34;99975.09;130304;1268;107693;-80
2022/07/14 12:09:50;;;;;;;3.40;1.10;;;;;;;24.52;45.74;99964.80;130200;1267;108816;-79
2022/07/14 12:12:55;;;;;;;1.40;1.10;;;;;;;24.55;44.17;99969.52;130322;1268;108853;-78
2022/07/14 12:16:06;;;;;;;2.70;1.10;;;;;;;24.60;44.00;99968.73;130220;1268;107816;-78
2022/07/14 12:19:12;;;;;;;1.90;1.30;;;;;;;24.55;41.27;99971.86;130441;1268;108600;-79
2022/07/14 12:22:17;;;;;;;2.60;1.80;;;;;;;24.45;41.86;99959.76;130335;1268;108508;-79
2022/07/14 12:25:32;;;;;;;2.50;1.20;;;;;;;24.48;41.09;99971.81;130244;1268;108707;-79
2022/07/14 12:28:37;;;;;;;3.60;1.30;;;;;;;24.41;40.75;99967.90;130292;1268;108709;-79
2022/07/14 12:31:44;;;;;;;156.10;65.80;;;;;;;24.43;42.33;99962.89;130261;1268;107654;-80
2022/07/14 12:34:49;;;;;;;34.00;20.50;;;;;;;24.53;42.58;99965.79;130242;1268;107721;-79
2022/07/14 12:37:55;;;;;;;16.40;9.50;;;;;;;24.60;42.69;99970.14;130319;1268;108736;-80
2022/07/14 12:41:02;;;;;;;5.60;3.20;;;;;;;24.65;43.69;99960.50;130317;1268;109350;-79
2022/07/14 12:44:09;;;;;;;1.50;1.30;;;;;;;24.64;41.37;99956.83;130292;1268;108814;-79
2022/07/14 12:47:15;;;;;;;1.70;1.20;;;;;;;24.61;40.55;99955.42;130278;1268;108732;-80
2022/07/14 12:50:23;;;;;;;2.70;1.10;;;;;;;24.63;41.20;99955.33;130323;1268;107026;-80
2022/07/14 12:53:28;;;;;;;2.50;1.00;;;;;;;24.66;40.14;99950.58;130396;1268;108906;-79
2022/07/14 12:56:36;;;;;;;3.30;1.20;;;;;;;24.56;37.89;99951.43;130314;1268;108875;-79
2022/07/14 12:59:41;;;;;;;2.00;1.00;;;;;;;24.57;38.57;99951.23;130257;1268;108894;-79
2022/07/14 13:02:47;;;;;;;2.50;1.00;;;;;;;24.58;37.28;99952.98;130261;1268;108905;-80
2022/07/14 13:05:55;;;;;;;3.00;1.10;;;;;;;24.57;37.04;99950.13;130358;1268;108768;-79
2022/07/14 13:09:01;;;;;;;3.50;1.30;;;;;;;24.53;36.40;99948.71;130286;1268;108705;-79
2022/07/14 13:12:29;;;;;;;3.00;1.30;;;;;;;24.52;36.34;99948.48;130229;1268;108737;-79
2022/07/14 13:15:34;;;;;;;1.80;1.10;;;;;;;24.53;37.11;99940.21;130311;1268;109830;-79
2022/07/14 13:19:00;;;;;;;1.40;1.00;;;;;;;24.51;36.77;99932.33;130349;1268;108762;-79
2022/07/14 13:22:07;;;;;;;2.80;1.10;;;;;;;24.57;37.50;99927.06;130387;1268;108787;-79
2022/07/14 13:25:12;;;;;;;2.50;1.20;;;;;;;24.68;37.46;99924.64;130419;1268;108326;-80
2022/07/14 13:28:28;;;;;;;2.40;0.90;;;;;;;24.78;37.77;99926.71;130435;1268;108734;-79
2022/07/14 13:31:34;;;;;;;1.40;1.00;;;;;;;24.84;36.95;99927.23;130381;1268;109092;-79
2022/07/14 13:34:40;;;;;;;1.40;1.00;;;;;;;24.83;36.93;99921.20;130240;1268;108930;-79
2022/07/14 13:37:46;;;;;;;2.40;1.10;;;;;;;24.85;37.18;99918.88;130303;1268;109075;-74
2022/07/14 13:40:51;;;;;;;2.60;1.10;;;;;;;24.82;35.66;99919.44;130196;1265;108844;-74
2022/07/14 13:43:58;;;;;;;2.30;1.30;;;;;;;24.81;36.27;99914.90;130248;1268;108909;-73
2022/07/14 13:47:04;;;;;;;1.10;0.90;;;;;;;24.83;37.07;99917.42;130356;1268;108693;-74
2022/07/14 13:53:44;;;;;;;3.00;1.20;;;;;;;24.84;35.86;99920.34;129732;1273;108567;-74
2022/07/14 13:56:50;;;;;;;3.10;0.90;;;;;;;24.79;32.18;99925.69;130223;1268;108841;-75
2022/07/14 13:59:56;;;;;;;1.30;1.10;;;;;;;24.78;35.18;99915.91;130240;1270;108263;-74
2022/07/14 14:06:24;;;;;;;2.00;1.10;;;;;;;24.82;36.18;99914.69;130185;1270;108809;-74
2022/07/14 14:09:30;;;;;;;1.60;1.00;;;;;;;24.78;34.99;99908.64;130223;1269;108881;-74
2022/07/14 14:12:36;;;;;;;1.30;1.00;;;;;;;24.78;36.00;99903.30;130231;1269;108088;-74
2022/07/14 14:15:41;;;;;;;2.80;1.40;;;;;;;24.82;36.78;99907.55;130225;1270;108887;-74
2022/07/14 14:18:47;;;;;;;2.00;1.10;;;;;;;24.81;37.04;99904.65;130268;1270;109089;-75
2022/07/14 14:21:52;;;;;;;2.50;1.30;;;;;;;24.78;36.11;99902.63;130223;1268;108752;-75
2022/07/14 14:24:58;;;;;;;2.40;1.00;;;;;;;24.75;34.50;99907.96;130198;1270;108258;-74
2022/07/14 14:28:03;;;;;;;2.40;0.90;;;;;;;24.72;33.98;99899.79;130261;1269;107672;-73
2022/07/14 14:31:09;;;;;;;4.80;1.50;;;;;;;24.73;34.65;99899.75;130206;1270;109846;-73
2022/07/14 14:34:15;;;;;;;5.80;1.20;;;;;;;24.71;34.62;99893.45;130227;1270;108313;-73
2022/07/14 14:37:21;;;;;;;2.00;1.10;;;;;;;24.74;35.15;99888.64;130177;1269;108825;-73